Time;durP1;ratioP1;P1;durP2;ratioP2;P2;SDS_P1;SDS_P2;PMS_P1;PMS_P2;Temp;Humidity;BMP_temperature;BMP_pressure;BME280_temperature;BME280_humidity;BME280_pressure;Samples;Min_cycle;Max_cycle;Signal;HPM_P1;HPM_P2
2023/10/20 00:01:47;;;;;;;5.97;2.75;;;14.90;99.90;;;;;;5032816;28;20041;-54
2023/10/20 00:04:12;;;;;;;4.30;2.55;;;14.90;99.90;;;;;;5014845;28;20041;-55
2023/10/20 00:06:41;;;;;;;4.90;2.72;;;14.90;99.90;;;;;;5033210;28;20029;-55
2023/10/20 00:09:07;;;;;;;5.25;3.10;;;14.90;99.90;;;;;;5032423;28;20486;-55
2023/10/20 00:11:33;;;;;;;5.80;2.80;;;14.90;99.90;;;;;;5032600;28;20106;-54
2023/10/20 00:13:59;;;;;;;4.85;2.67;;;14.90;99.90;;;;;;5033133;28;20478;-54
2023/10/20 00:16:28;;;;;;;4.95;2.67;;;14.90;99.90;;;;;;5032796;28;20033;-55
2023/10/20 00:18:56;;;;;;;7.55;3.13;;;14.90;99.90;;;;;;5032585;28;20032;-55
2023/10/20 00:21:22;;;;;;;6.07;2.88;;;14.90;99.90;;;;;;5033074;28;20112;-55
2023/10/20 00:23:47;;;;;;;6.50;3.15;;;14.90;99.90;;;;;;5030874;28;20096;-55
2023/10/20 00:26:13;;;;;;;5.88;3.05;;;14.90;99.90;;;;;;5031543;28;20355;-55
2023/10/20 00:28:39;;;;;;;4.97;3.28;;;14.80;99.90;;;;;;5013724;28;20455;-53
2023/10/20 00:31:05;;;;;;;5.53;3.17;;;14.70;99.90;;;;;;5032595;28;20033;-54
2023/10/20 00:33:31;;;;;;;5.60;3.40;;;14.70;99.90;;;;;;5031484;28;20021;-55
2023/10/20 00:35:57;;;;;;;7.18;3.88;;;14.60;99.90;;;;;;5014184;28;20021;-55
2023/10/20 00:38:23;;;;;;;7.13;3.33;;;14.60;99.90;;;;;;5014497;28;20042;-55
2023/10/20 00:40:49;;;;;;;5.15;3.30;;;14.50;99.90;;;;;;5032529;28;20029;-54
2023/10/20 00:43:15;;;;;;;6.57;3.80;;;14.50;99.90;;;;;;5014516;28;20060;-55
2023/10/20 00:45:43;;;;;;;7.55;3.58;;;14.40;99.90;;;;;;4998094;28;20072;-53
2023/10/20 00:48:11;;;;;;;8.55;3.90;;;14.40;99.90;;;;;;5014294;28;20039;-55
2023/10/20 00:50:38;;;;;;;6.63;3.75;;;14.30;99.90;;;;;;5014524;28;20037;-55
2023/10/20 00:53:06;;;;;;;6.55;3.60;;;14.30;99.90;;;;;;5014539;28;20076;-55
2023/10/20 00:55:33;;;;;;;9.70;4.35;;;14.20;99.90;;;;;;5014129;28;20118;-55
2023/10/20 00:57:59;;;;;;;11.88;4.28;;;14.10;99.90;;;;;;5014269;28;20053;-54
2023/10/20 01:00:25;;;;;;;8.45;4.20;;;14.10;99.90;;;;;;5032104;28;20025;-55
2023/10/20 01:02:53;;;;;;;9.70;4.57;;;14.10;99.90;;;;;;5014254;28;20032;-55
2023/10/20 01:05:25;;;;;;;7.82;4.25;;;14.00;99.90;;;;;;5031813;28;20072;-55
2023/10/20 01:07:50;;;;;;;9.23;4.40;;;14.00;99.90;;;;;;5014125;28;20044;-55
2023/10/20 01:10:16;;;;;;;9.27;4.18;;;14.10;99.90;;;;;;5013889;28;20033;-54
2023/10/20 01:12:42;;;;;;;8.77;4.50;;;14.10;99.90;;;;;;5014444;28;20453;-55
2023/10/20 01:15:09;;;;;;;9.80;4.82;;;14.00;99.90;;;;;;5031796;28;20017;-53
2023/10/20 01:17:35;;;;;;;10.50;4.63;;;14.00;99.90;;;;;;5013738;28;20039;-53
2023/10/20 01:20:05;;;;;;;7.90;4.35;;;14.00;99.90;;;;;;5031932;28;20033;-55
2023/10/20 01:22:32;;;;;;;10.63;4.90;;;14.00;99.90;;;;;;5017155;28;20033;-54
2023/10/20 01:24:59;;;;;;;9.48;4.80;;;13.90;99.90;;;;;;5017523;28;20079;-57
2023/10/20 01:27:25;;;;;;;10.77;5.15;;;14.00;99.90;;;;;;5017860;28;20053;-55
2023/10/20 01:29:52;;;;;;;8.52;4.88;;;13.90;99.90;;;;;;5017315;28;20033;-55
2023/10/20 01:32:18;;;;;;;10.63;5.85;;;13.90;99.90;;;;;;5035690;28;20025;-55
2023/10/20 01:34:44;;;;;;;9.35;4.93;;;13.90;99.90;;;;;;5017781;28;20040;-52
2023/10/20 01:37:14;;;;;;;11.23;4.95;;;13.90;99.90;;;;;;5035609;28;20108;-54
2023/10/20 01:39:41;;;;;;;10.30;5.05;;;13.90;99.90;;;;;;5017649;28;20032;-55
2023/10/20 01:42:07;;;;;;;10.65;5.03;;;13.90;99.90;;;;;;5035663;28;20035;-55
2023/10/20 01:44:34;;;;;;;10.30;5.38;;;13.90;99.90;;;;;;5017409;28;20064;-54
2023/10/20 01:46:59;;;;;;;9.88;5.07;;;13.90;99.90;;;;;;5017612;28;20064;-54
2023/10/20 01:49:25;;;;;;;11.60;5.65;;;13.90;99.90;;;;;;5035200;28;20473;-53
2023/10/20 01:51:51;;;;;;;10.02;4.80;;;13.90;99.90;;;;;;5017103;28;20040;-55
2023/10/20 01:54:16;;;;;;;10.63;5.57;;;13.90;99.90;;;;;;5017183;28;20523;-53
2023/10/20 01:56:43;;;;;;;11.95;5.80;;;13.90;99.90;;;;;;5017208;28;20028;-54
2023/10/20 01:59:10;;;;;;;9.85;5.38;;;13.90;99.90;;;;;;5017054;28;20029;-53
2023/10/20 02:01:36;;;;;;;13.98;5.95;;;13.90;99.90;;;;;;5017334;28;20063;-55
2023/10/20 02:04:01;;;;;;;11.57;6.03;;;13.90;99.90;;;;;;5000951;28;20053;-55
2023/10/20 02:06:27;;;;;;;12.48;6.00;;;13.90;99.90;;;;;;5034634;28;20033;-55
2023/10/20 02:08:53;;;;;;;11.52;6.50;;;13.90;99.90;;;;;;5016844;28;20053;-52
2023/10/20 02:11:18;;;;;;;11.02;5.82;;;13.90;99.90;;;;;;5035035;28;20482;-54
2023/10/20 02:13:44;;;;;;;14.60;6.15;;;13.90;99.90;;;;;;5016779;28;20398;-53
2023/10/20 02:16:10;;;;;;;12.20;5.50;;;13.90;99.90;;;;;;5016701;28;20148;-53
2023/10/20 02:18:37;;;;;;;12.68;6.13;;;14.00;99.90;;;;;;5016610;28;20494;-53
2023/10/20 02:21:03;;;;;;;13.02;5.97;;;14.00;99.90;;;;;;5016734;28;20026;-55
2023/10/20 02:23:34;;;;;;;11.40;6.50;;;14.00;99.90;;;;;;5016979;28;20049;-55
2023/10/20 02:26:07;;;;;;;14.30;7.32;;;14.00;99.90;;;;;;5034501;28;20030;-54
2023/10/20 02:28:36;;;;;;;13.13;5.90;;;14.00;99.90;;;;;;5016583;28;20455;-55
2023/10/20 02:31:11;;;;;;;12.43;6.22;;;14.00;99.90;;;;;;5034323;28;20486;-54
2023/10/20 02:33:38;;;;;;;11.73;5.45;;;14.00;99.90;;;;;;5033662;28;20034;-55
2023/10/20 02:36:04;;;;;;;12.23;5.90;;;14.00;99.90;;;;;;5034456;28;20060;-55
2023/10/20 02:38:30;;;;;;;12.15;6.28;;;14.00;99.90;;;;;;5034645;28;20470;-54
2023/10/20 02:40:56;;;;;;;11.82;5.95;;;14.00;99.90;;;;;;5034404;28;20512;-55
2023/10/20 02:43:22;;;;;;;13.68;7.38;;;14.00;99.90;;;;;;5016981;28;20383;-51
2023/10/20 02:45:48;;;;;;;11.43;6.20;;;14.00;99.90;;;;;;5016651;28;20037;-53
2023/10/20 02:48:15;;;;;;;11.52;5.90;;;14.10;99.90;;;;;;5000453;28;20026;-54
2023/10/20 02:50:40;;;;;;;14.15;6.07;;;14.00;99.90;;;;;;5016221;28;20183;-55
2023/10/20 02:53:07;;;;;;;11.63;5.93;;;14.10;99.90;;;;;;5016624;28;20045;-55
2023/10/20 02:55:33;;;;;;;13.55;6.65;;;14.10;99.90;;;;;;5016232;28;20455;-54
2023/10/20 02:58:00;;;;;;;14.10;6.35;;;14.00;99.90;;;;;;5016463;28;20034;-55
2023/10/20 03:00:26;;;;;;;12.82;6.82;;;14.00;99.90;;;;;;5034359;28;20470;-54
2023/10/20 03:02:53;;;;;;;12.38;5.50;;;14.00;99.90;;;;;;5020724;28;20029;-52
2023/10/20 03:05:20;;;;;;;13.25;6.03;;;14.00;99.90;;;;;;5023505;28;20493;-54
2023/10/20 03:07:49;;;;;;;12.05;6.18;;;14.00;99.90;;;;;;5038258;28;20036;-55
2023/10/20 03:10:15;;;;;;;;;;;14.00;99.90;;;;;;5019595;28;20041;-55
2023/10/20 03:12:41;;;;;;;13.57;6.18;;;14.00;99.90;;;;;;5020473;28;19913;-53
2023/10/20 03:15:08;;;;;;;11.35;5.60;;;14.00;99.90;;;;;;5022021;28;20064;-53
2023/10/20 03:17:34;;;;;;;12.88;6.55;;;14.00;99.90;;;;;;5022047;28;20108;-53
2023/10/20 03:20:00;;;;;;;13.52;6.65;;;13.90;99.90;;;;;;5037897;28;20116;-53
2023/10/20 03:22:26;;;;;;;11.65;5.65;;;13.90;99.90;;;;;;5041397;28;20033;-54
2023/10/20 03:24:53;;;;;;;11.48;5.97;;;13.90;99.90;;;;;;5050235;28;20033;-54
2023/10/20 03:27:19;;;;;;;12.70;6.18;;;13.90;99.90;;;;;;5040115;28;20056;-51
2023/10/20 03:29:45;;;;;;;12.57;5.93;;;13.90;99.90;;;;;;5027555;28;20017;-55
2023/10/20 03:32:11;;;;;;;12.45;6.32;;;13.90;99.90;;;;;;5047546;28;20038;-53
2023/10/20 03:34:36;;;;;;;12.95;6.28;;;13.90;99.90;;;;;;5045574;28;20021;-55
2023/10/20 03:37:02;;;;;;;12.13;5.95;;;14.00;99.90;;;;;;5020005;28;20026;-55
2023/10/20 03:39:28;;;;;;;11.70;6.05;;;14.00;99.90;;;;;;5043837;28;20097;-53
2023/10/20 03:41:53;;;;;;;11.88;5.85;;;13.90;99.90;;;;;;5021392;28;20124;-52
2023/10/20 03:44:21;;;;;;;11.30;5.90;;;13.90;99.90;;;;;;5041968;28;20539;-54
2023/10/20 03:46:49;;;;;;;10.90;5.63;;;13.90;99.90;;;;;;5027895;28;20029;-55
2023/10/20 03:49:16;;;;;;;12.00;5.47;;;14.00;99.90;;;;;;5042762;28;20049;-57
2023/10/20 03:51:51;;;;;;;14.43;5.43;;;13.90;99.90;;;;;;5042460;28;20043;-54
2023/10/20 03:54:18;;;;;;;11.43;6.13;;;13.90;99.90;;;;;;5042379;28;20052;-53
2023/10/20 03:56:44;;;;;;;11.13;6.03;;;13.90;99.90;;;;;;5019723;28;20031;-53
2023/10/20 03:59:11;;;;;;;11.32;5.70;;;13.90;99.90;;;;;;5046129;28;20393;-50
2023/10/20 04:01:40;;;;;;;10.13;5.15;;;13.90;99.90;;;;;;5042038;28;20018;-51
2023/10/20 04:04:09;;;;;;;12.43;5.43;;;13.90;99.90;;;;;;5044204;28;20154;-55
2023/10/20 04:06:39;;;;;;;12.82;5.80;;;13.90;99.90;;;;;;5034390;28;20021;-52
2023/10/20 04:09:09;;;;;;;;;;;14.00;99.90;;;;;;5044735;28;20051;-53
2023/10/20 04:11:38;;;;;;;12.27;5.88;;;13.90;99.90;;;;;;5045224;28;19913;-50
2023/10/20 04:14:06;;;;;;;12.30;6.00;;;13.90;99.90;;;;;;5042806;28;20052;-53
2023/10/20 04:16:42;;;;;;;9.57;5.22;;;14.00;99.90;;;;;;5037869;28;20025;-55
2023/10/20 04:19:14;;;;;;;9.23;5.10;;;14.00;99.90;;;;;;5034296;28;20450;-55
2023/10/20 04:21:40;;;;;;;11.30;5.28;;;14.00;99.90;;;;;;5036196;28;20155;-55
2023/10/20 04:24:10;;;;;;;11.05;5.50;;;14.00;99.90;;;;;;5037019;28;20467;-54
2023/10/20 04:26:38;;;;;;;12.55;5.70;;;14.10;99.90;;;;;;5044622;28;20026;-54
2023/10/20 04:43:04;;;;;;;10.82;5.90;;;14.10;99.90;;;;;;5040428;28;20351;-53
2023/10/20 04:58:57;;;;;;;16.50;7.65;;;14.10;99.90;;;;;;5049063;28;20032;-55
2023/10/20 05:01:30;;;;;;;19.95;8.65;;;14.10;99.90;;;;;;5030947;28;20040;-53
2023/10/20 05:03:59;;;;;;;23.65;10.18;;;14.20;99.90;;;;;;5016550;28;20025;-55
2023/10/20 05:06:42;;;;;;;20.60;9.95;;;14.20;99.90;;;;;;5044046;28;20108;-55
2023/10/20 05:09:14;;;;;;;21.05;9.68;;;14.20;99.90;;;;;;5042349;28;20057;-54
2023/10/20 05:11:42;;;;;;;22.35;10.55;;;14.20;99.90;;;;;;5037386;28;20108;-51
2023/10/20 05:14:07;;;;;;;23.08;10.32;;;14.20;99.90;;;;;;5048412;28;20026;-55
2023/10/20 05:16:34;;;;;;;21.40;10.65;;;14.20;99.90;;;;;;5044751;28;20086;-53
2023/10/20 05:19:04;;;;;;;20.58;9.90;;;14.20;99.90;;;;;;5042173;28;20025;-55
2023/10/20 05:21:33;;;;;;;19.55;9.10;;;14.20;99.90;;;;;;5039369;28;20462;-54
2023/10/20 05:24:05;;;;;;;;;;;14.20;99.90;;;;;;5053155;28;20420;-55
2023/10/20 05:26:31;;;;;;;17.20;8.85;;;14.20;99.90;;;;;;5034920;28;19909;-51
2023/10/20 05:29:01;;;;;;;18.42;8.98;;;14.20;99.90;;;;;;5034410;28;20449;-55
2023/10/20 05:31:29;;;;;;;20.85;10.00;;;14.20;99.90;;;;;;5051651;28;20040;-55
2023/10/20 05:33:55;;;;;;;18.48;9.77;;;14.10;99.90;;;;;;5039382;28;20029;-54
2023/10/20 05:36:21;;;;;;;19.80;9.18;;;14.20;99.90;;;;;;5049677;28;20100;-56
2023/10/20 05:38:47;;;;;;;19.63;9.77;;;14.20;99.90;;;;;;5047219;28;20432;-53
2023/10/20 05:41:12;;;;;;;24.20;10.10;;;14.20;99.90;;;;;;5043541;28;20501;-54
2023/10/20 05:43:38;;;;;;;20.95;10.40;;;14.10;99.90;;;;;;5040140;28;20477;-55
2023/10/20 05:46:04;;;;;;;19.08;9.45;;;14.10;99.90;;;;;;5042490;28;20038;-54
2023/10/20 05:48:31;;;;;;;21.20;9.68;;;14.10;99.90;;;;;;5047417;28;20028;-57
2023/10/20 05:50:57;;;;;;;21.58;9.85;;;14.10;99.90;;;;;;5055160;28;20029;-51
2023/10/20 05:53:26;;;;;;;21.35;9.88;;;14.20;99.90;;;;;;5038877;28;20120;-56
2023/10/20 05:55:52;;;;;;;20.27;9.82;;;14.20;99.90;;;;;;5040937;28;20087;-56
2023/10/20 05:58:19;;;;;;;18.10;9.77;;;14.20;99.90;;;;;;5032525;28;20401;-59
2023/10/20 06:00:45;;;;;;;21.48;10.63;;;14.20;99.90;;;;;;5043792;28;20022;-57
2023/10/20 06:03:11;;;;;;;20.48;9.77;;;14.20;99.90;;;;;;5044460;28;20031;-59
2023/10/20 06:05:38;;;;;;;21.88;10.30;;;14.30;99.90;;;;;;5045674;28;20112;-57
2023/10/20 06:08:03;;;;;;;19.42;10.30;;;14.30;99.90;;;;;;5044677;28;20040;-55
2023/10/20 06:10:30;;;;;;;20.17;9.77;;;14.30;99.90;;;;;;5045175;28;20119;-56
2023/10/20 06:12:56;;;;;;;20.55;10.18;;;14.30;99.90;;;;;;5051245;28;20025;-57
2023/10/20 06:15:22;;;;;;;21.58;9.95;;;14.20;99.90;;;;;;5048378;28;20024;-56
2023/10/20 06:17:49;;;;;;;24.27;10.98;;;14.30;99.90;;;;;;5048249;28;20032;-54
2023/10/20 06:20:15;;;;;;;22.67;11.38;;;14.20;99.90;;;;;;5040336;28;20032;-56
2023/10/20 06:22:42;;;;;;;19.83;10.50;;;14.20;99.90;;;;;;5040636;28;20025;-56
2023/10/20 06:25:14;;;;;;;22.30;10.82;;;14.20;99.90;;;;;;5045087;28;20426;-56
2023/10/20 06:27:44;;;;;;;22.63;11.10;;;14.20;99.90;;;;;;5052792;28;20037;-55
2023/10/20 06:30:15;;;;;;;24.52;11.10;;;14.10;99.90;;;;;;5039019;28;20026;-56
2023/10/20 06:32:56;;;;;;;26.20;11.90;;;14.10;99.90;;;;;;5041044;28;20033;-57
2023/10/20 06:35:50;;;;;;;22.65;11.48;;;14.10;99.90;;;;;;5044134;28;20329;-55
2023/10/20 06:40:34;;;;;;;21.55;10.98;;;14.10;99.90;;;;;;5039994;28;20466;-56
2023/10/20 06:42:59;;;;;;;22.25;10.60;;;14.10;99.90;;;;;;5031546;28;20037;-56
2023/10/20 06:45:25;;;;;;;22.88;11.18;;;14.00;99.90;;;;;;5045581;28;20363;-55
2023/10/20 06:47:51;;;;;;;24.50;11.27;;;14.10;99.90;;;;;;5045507;28;20064;-56
2023/10/20 06:50:16;;;;;;;18.80;9.93;;;14.00;99.90;;;;;;5048096;28;20116;-55
2023/10/20 06:52:42;;;;;;;21.30;10.18;;;14.00;99.90;;;;;;5047362;28;20370;-54
2023/10/20 06:55:09;;;;;;;19.50;10.98;;;14.00;99.90;;;;;;5052618;28;20037;-55
2023/10/20 06:57:34;;;;;;;19.20;9.70;;;14.00;99.90;;;;;;5045137;28;20041;-55
2023/10/20 07:00:01;;;;;;;19.73;9.30;;;13.90;99.90;;;;;;5044362;28;20086;-55
2023/10/20 07:02:27;;;;;;;20.40;10.65;;;13.90;99.90;;;;;;5038997;28;20024;-55
2023/10/20 07:04:53;;;;;;;23.13;10.23;;;13.90;99.90;;;;;;5035244;28;20025;-57
2023/10/20 07:07:19;;;;;;;22.83;10.88;;;13.90;99.90;;;;;;5051064;28;20029;-57
2023/10/20 07:09:45;;;;;;;18.88;9.38;;;13.90;99.90;;;;;;5019219;28;20100;-56
2023/10/20 07:12:11;;;;;;;16.75;8.77;;;13.90;99.90;;;;;;5048288;28;20040;-58
2023/10/20 07:14:40;;;;;;;16.85;8.88;;;13.90;99.90;;;;;;5033498;28;20029;-57
2023/10/20 07:17:06;;;;;;;20.13;8.25;;;13.90;99.90;;;;;;5035530;28;20089;-55
2023/10/20 07:19:35;;;;;;;19.05;9.45;;;13.90;99.90;;;;;;5044222;28;20110;-54
2023/10/20 07:22:04;;;;;;;17.88;9.18;;;13.80;99.90;;;;;;5036599;28;20028;-53
2023/10/20 07:24:30;;;;;;;18.75;9.00;;;13.80;99.90;;;;;;5039676;28;20029;-56
2023/10/20 07:26:56;;;;;;;22.10;9.80;;;13.80;99.90;;;;;;5030529;28;20511;-55
2023/10/20 07:29:21;;;;;;;18.05;9.45;;;13.80;99.90;;;;;;5035674;28;20037;-56
2023/10/20 07:31:47;;;;;;;19.42;8.55;;;13.80;99.90;;;;;;5047237;28;20085;-55
2023/10/20 07:34:14;;;;;;;16.92;8.70;;;13.80;99.90;;;;;;5042379;28;20548;-56
2023/10/20 07:36:40;;;;;;;18.55;9.70;;;13.80;99.90;;;;;;5024481;28;20025;-56
2023/10/20 07:39:08;;;;;;;16.02;8.70;;;13.80;99.90;;;;;;5051031;28;20060;-55
2023/10/20 07:41:35;;;;;;;17.23;8.95;;;13.70;99.90;;;;;;5052874;28;20029;-55
2023/10/20 07:44:04;;;;;;;20.45;9.35;;;13.70;99.90;;;;;;5019161;28;20026;-55
2023/10/20 07:46:31;;;;;;;16.77;9.57;;;13.70;99.90;;;;;;5046358;28;20461;-55
2023/10/20 07:48:56;;;;;;;16.65;8.93;;;13.70;99.90;;;;;;5054305;28;20056;-55
2023/10/20 07:51:23;;;;;;;17.00;8.68;;;13.70;99.90;;;;;;5054120;28;20021;-55
2023/10/20 07:53:48;;;;;;;17.27;8.43;;;13.70;99.90;;;;;;5046517;28;20040;-51
2023/10/20 07:56:14;;;;;;;15.40;8.07;;;13.70;99.90;;;;;;5055272;28;20131;-55
2023/10/20 07:58:40;;;;;;;13.85;7.22;;;13.70;99.90;;;;;;5040785;28;20470;-53
2023/10/20 08:01:06;;;;;;;16.90;7.75;;;13.60;99.90;;;;;;5043156;28;20029;-54
2023/10/20 08:03:32;;;;;;;13.90;7.97;;;13.60;99.90;;;;;;5031827;28;20037;-53
2023/10/20 08:06:02;;;;;;;14.55;7.55;;;13.60;99.90;;;;;;5044278;28;20148;-55
2023/10/20 08:08:29;;;;;;;14.90;7.30;;;13.60;99.90;;;;;;5046626;28;20032;-54
2023/10/20 08:10:54;;;;;;;16.33;8.02;;;13.60;99.90;;;;;;5037894;28;20025;-55
2023/10/20 08:13:20;;;;;;;14.20;6.85;;;13.60;99.90;;;;;;5035649;28;20173;-55
2023/10/20 08:15:46;;;;;;;13.35;7.05;;;13.60;99.90;;;;;;5048142;28;20128;-55
2023/10/20 08:18:12;;;;;;;14.40;7.88;;;13.60;99.90;;;;;;5025814;28;20025;-55
2023/10/20 08:20:38;;;;;;;11.70;7.13;;;13.60;99.90;;;;;;5035859;28;20021;-55
2023/10/20 08:23:04;;;;;;;16.35;6.10;;;13.60;99.90;;;;;;5017668;28;20037;-55
2023/10/20 08:25:30;;;;;;;14.50;6.70;;;13.60;99.90;;;;;;5035372;28;20037;-55
2023/10/20 08:27:55;;;;;;;13.48;6.80;;;13.60;99.90;;;;;;5036754;28;20045;-54
2023/10/20 08:30:21;;;;;;;10.52;6.43;;;13.60;99.90;;;;;;5019348;28;20038;-55
2023/10/20 08:32:47;;;;;;;10.70;5.45;;;13.60;99.90;;;;;;5018946;28;20040;-53
2023/10/20 08:35:14;;;;;;;9.23;5.10;;;13.50;99.90;;;;;;5018908;28;20033;-55
2023/10/20 08:37:39;;;;;;;9.95;5.78;;;13.50;99.90;;;;;;5036136;28;20025;-54
2023/10/20 08:40:10;;;;;;;8.32;5.30;;;13.50;99.90;;;;;;5036153;28;20099;-52
2023/10/20 08:42:39;;;;;;;10.18;5.35;;;13.50;99.90;;;;;;5036727;28;20397;-55
2023/10/20 08:45:11;;;;;;;8.85;5.50;;;13.60;99.90;;;;;;5037375;28;20055;-52
2023/10/20 08:47:42;;;;;;;7.97;5.03;;;13.50;99.90;;;;;;5035822;28;20039;-54
2023/10/20 08:50:11;;;;;;;8.95;5.00;;;13.60;99.90;;;;;;5018066;28;20458;-54
2023/10/20 08:52:38;;;;;;;7.97;4.63;;;13.50;99.90;;;;;;5035555;28;20030;-54
2023/10/20 08:55:07;;;;;;;8.18;4.80;;;13.50;99.90;;;;;;5035425;28;20037;-52
2023/10/20 08:57:33;;;;;;;9.18;4.60;;;13.50;99.90;;;;;;5035698;28;20086;-54
2023/10/20 08:59:58;;;;;;;6.97;4.40;;;13.50;99.90;;;;;;5035522;28;20085;-52
2023/10/20 09:02:34;;;;;;;9.07;4.63;;;13.50;99.90;;;;;;5036067;28;20036;-50
2023/10/20 09:05:00;;;;;;;7.78;3.80;;;13.50;99.90;;;;;;5035592;28;20037;-52
2023/10/20 09:07:25;;;;;;;6.90;4.40;;;13.50;99.90;;;;;;5035893;28;20044;-54
2023/10/20 09:09:53;;;;;;;7.13;4.20;;;13.50;99.90;;;;;;5035334;28;20033;-51
2023/10/20 09:12:18;;;;;;;7.72;4.68;;;13.50;99.90;;;;;;5036390;28;20441;-53
2023/10/20 09:14:44;;;;;;;8.75;4.53;;;13.50;99.90;;;;;;5018101;28;20124;-52
2023/10/20 09:17:23;;;;;;;7.40;4.25;;;13.50;99.90;;;;;;5035633;28;20087;-53
2023/10/20 09:19:48;;;;;;;6.90;3.83;;;13.50;99.90;;;;;;5035669;28;20033;-53
2023/10/20 09:22:14;;;;;;;7.63;4.00;;;13.50;99.90;;;;;;5018579;28;20040;-53
2023/10/20 09:24:41;;;;;;;8.07;3.72;;;13.50;99.90;;;;;;5017703;28;20441;-51
2023/10/20 09:27:07;;;;;;;8.07;3.80;;;13.50;99.90;;;;;;5035512;28;20375;-52
2023/10/20 09:29:34;;;;;;;6.32;3.55;;;13.50;99.90;;;;;;5035109;28;20036;-51
2023/10/20 09:32:00;;;;;;;6.47;3.65;;;13.50;99.90;;;;;;5035731;28;20037;-54
2023/10/20 09:34:26;;;;;;;8.20;3.60;;;13.50;99.90;;;;;;5035245;28;20021;-51
2023/10/20 09:36:53;;;;;;;7.65;3.53;;;13.50;99.90;;;;;;5035483;28;20502;-50
2023/10/20 09:39:28;;;;;;;7.15;3.20;;;13.50;99.90;;;;;;5034642;28;20026;-51
2023/10/20 09:41:57;;;;;;;5.50;3.67;;;13.40;99.90;;;;;;5035117;28;20124;-51
2023/10/20 09:44:45;;;;;;;6.15;3.67;;;13.50;99.90;;;;;;5037885;28;20032;-53
2023/10/20 09:47:22;;;;;;;5.38;3.35;;;13.40;99.90;;;;;;5035706;28;20556;-51
2023/10/20 09:49:51;;;;;;;6.05;3.47;;;13.50;99.90;;;;;;5037874;28;20527;-55
2023/10/20 09:52:17;;;;;;;5.25;3.03;;;13.40;99.90;;;;;;5037872;28;20041;-55
2023/10/20 09:54:43;;;;;;;5.20;3.30;;;13.40;99.90;;;;;;5037707;28;20032;-55
2023/10/20 09:57:10;;;;;;;6.22;3.60;;;13.40;99.90;;;;;;5020731;28;20033;-55
2023/10/20 09:59:38;;;;;;;5.80;3.58;;;13.50;99.90;;;;;;5020295;28;20049;-54
2023/10/20 10:02:04;;;;;;;6.53;3.65;;;13.40;99.90;;;;;;5020865;28;20541;-54
2023/10/20 10:04:39;;;;;;;6.78;3.50;;;13.40;99.90;;;;;;5038064;28;20034;-55
2023/10/20 10:07:06;;;;;;;5.88;3.53;;;13.40;99.90;;;;;;5038343;28;20121;-54
2023/10/20 10:09:52;;;;;;;7.20;3.28;;;13.40;99.90;;;;;;5037858;28;20045;-54
2023/10/20 10:12:19;;;;;;;6.15;3.40;;;13.40;99.90;;;;;;5038187;28;20079;-53
2023/10/20 10:15:01;;;;;;;6.47;3.15;;;13.40;99.90;;;;;;5020359;28;20030;-55
2023/10/20 10:17:27;;;;;;;5.68;2.97;;;13.40;99.90;;;;;;5037806;28;20030;-53
2023/10/20 10:19:54;;;;;;;5.85;3.63;;;13.40;99.90;;;;;;5037514;28;20026;-55
2023/10/20 10:22:29;;;;;;;5.28;3.03;;;13.40;99.90;;;;;;5038630;28;20471;-55
2023/10/20 10:24:56;;;;;;;4.70;2.90;;;13.40;99.90;;;;;;5037956;28;20048;-55
2023/10/20 10:27:29;;;;;;;4.93;2.70;;;13.40;99.90;;;;;;5038162;28;20068;-54
2023/10/20 10:30:09;;;;;;;4.13;2.90;;;13.40;99.90;;;;;;5037821;28;20025;-55
2023/10/20 10:32:44;;;;;;;4.75;2.60;;;13.40;99.90;;;;;;5020400;28;20034;-55
2023/10/20 10:35:16;;;;;;;4.82;2.60;;;13.40;99.90;;;;;;5038038;28;20022;-55
2023/10/20 10:37:42;;;;;;;5.50;2.78;;;13.40;99.90;;;;;;5037865;28;20029;-55
2023/10/20 10:40:15;;;;;;;3.60;2.30;;;13.40;99.90;;;;;;5037488;28;20389;-56
2023/10/20 10:42:50;;;;;;;6.15;2.75;;;13.40;99.90;;;;;;5037482;28;20036;-55
2023/10/20 10:45:21;;;;;;;4.20;2.40;;;13.40;99.90;;;;;;5019903;28;20033;-56
2023/10/20 10:47:48;;;;;;;5.90;3.17;;;13.50;99.90;;;;;;5037504;28;20068;-55
2023/10/20 10:50:19;;;;;;;5.68;2.75;;;13.40;99.90;;;;;;5037528;28;20397;-52
2023/10/20 10:52:46;;;;;;;6.43;3.47;;;13.40;99.90;;;;;;5037851;28;20048;-55
2023/10/20 10:55:13;;;;;;;6.03;2.67;;;13.50;99.90;;;;;;5037051;28;20474;-52
2023/10/20 10:57:40;;;;;;;6.55;2.80;;;13.50;99.90;;;;;;5037397;28;20025;-55
2023/10/20 11:00:07;;;;;;;5.30;2.85;;;13.50;99.90;;;;;;5037167;28;20079;-56
2023/10/20 11:02:33;;;;;;;6.07;2.72;;;13.50;99.90;;;;;;5020086;28;20029;-54
2023/10/20 11:05:01;;;;;;;5.82;3.53;;;13.50;99.90;;;;;;5019397;28;20153;-55
2023/10/20 11:07:27;;;;;;;5.22;3.08;;;13.50;99.90;;;;;;5037317;28;20044;-54
2023/10/20 11:09:53;;;;;;;4.82;2.72;;;13.50;99.90;;;;;;5037041;28;20033;-55
2023/10/20 11:12:21;;;;;;;5.78;2.50;;;13.50;99.90;;;;;;5037195;28;20386;-56
2023/10/20 11:14:47;;;;;;;4.47;2.67;;;13.40;99.90;;;;;;5037374;28;20193;-55
2023/10/20 11:17:14;;;;;;;5.95;2.90;;;13.40;99.90;;;;;;5019497;28;20056;-53
2023/10/20 11:19:40;;;;;;;6.00;3.05;;;13.40;99.90;;;;;;5019450;28;20017;-54
2023/10/20 11:22:16;;;;;;;4.55;3.13;;;13.40;99.90;;;;;;5036927;28;20102;-52
2023/10/20 11:24:49;;;;;;;4.82;3.17;;;13.30;99.90;;;;;;5037353;28;20490;-54
2023/10/20 11:27:15;;;;;;;4.68;3.15;;;13.30;99.90;;;;;;5036918;28;20037;-55
2023/10/20 11:29:42;;;;;;;5.43;3.45;;;13.30;99.90;;;;;;5037310;28;20033;-54
2023/10/20 11:32:13;;;;;;;4.90;3.25;;;13.20;99.90;;;;;;5037223;28;20040;-55
2023/10/20 11:34:39;;;;;;;5.53;3.47;;;13.20;99.90;;;;;;5019813;28;20033;-55
2023/10/20 11:37:05;;;;;;;5.15;3.20;;;13.20;99.90;;;;;;5036434;28;20036;-53
2023/10/20 11:39:34;;;;;;;6.40;3.40;;;13.10;99.90;;;;;;5036600;28;20021;-54
2023/10/20 11:41:59;;;;;;;6.00;3.22;;;13.10;99.90;;;;;;5036563;28;20033;-55
2023/10/20 11:44:26;;;;;;;6.28;3.78;;;13.10;99.90;;;;;;5036425;28;20048;-54
2023/10/20 11:46:55;;;;;;;5.85;3.25;;;13.10;99.90;;;;;;5019145;28;20025;-56
2023/10/20 11:49:22;;;;;;;5.00;3.40;;;13.10;99.90;;;;;;5036784;28;20037;-55
2023/10/20 11:51:48;;;;;;;6.88;3.70;;;13.10;99.90;;;;;;5018792;28;20029;-52
2023/10/20 11:54:14;;;;;;;6.03;3.45;;;13.00;99.90;;;;;;5037001;28;20037;-55
2023/10/20 11:56:40;;;;;;;6.55;3.65;;;13.10;99.90;;;;;;5037521;28;20029;-54
2023/10/20 11:59:06;;;;;;;6.78;4.20;;;13.10;99.90;;;;;;5036682;28;20048;-55
2023/10/20 12:01:32;;;;;;;5.68;3.53;;;13.00;99.90;;;;;;5036909;28;20329;-55
2023/10/20 12:04:05;;;;;;;6.93;3.85;;;13.00;99.90;;;;;;5036319;28;20049;-55
2023/10/20 12:06:32;;;;;;;7.45;3.70;;;13.00;99.90;;;;;;5035932;28;20120;-55
2023/10/20 12:08:57;;;;;;;6.05;3.85;;;13.00;99.90;;;;;;5018383;28;20037;-55
2023/10/20 12:11:23;;;;;;;6.07;4.00;;;12.90;99.90;;;;;;5037819;28;20059;-52
2023/10/20 12:13:49;;;;;;;8.35;4.25;;;12.90;99.90;;;;;;5036142;28;20036;-53
2023/10/20 12:16:15;;;;;;;6.50;4.18;;;12.90;99.90;;;;;;5036295;28;20076;-55
2023/10/20 12:18:44;;;;;;;6.53;4.32;;;12.90;99.90;;;;;;5036258;28;20025;-55
2023/10/20 12:21:10;;;;;;;6.15;4.13;;;12.90;99.90;;;;;;5019804;28;20140;-54
2023/10/20 12:23:36;;;;;;;7.25;4.20;;;12.90;99.90;;;;;;5036136;28;20056;-54
2023/10/20 12:26:03;;;;;;;7.30;4.13;;;12.90;99.90;;;;;;5036825;28;20387;-55
2023/10/20 12:28:29;;;;;;;6.22;4.32;;;12.90;99.90;;;;;;5036667;28;20056;-55
2023/10/20 12:30:55;;;;;;;7.05;4.53;;;12.90;99.90;;;;;;5037147;28;20112;-53
2023/10/20 12:33:20;;;;;;;7.38;4.22;;;12.90;99.90;;;;;;5036479;28;20049;-55
2023/10/20 12:35:46;;;;;;;5.88;4.25;;;12.90;99.90;;;;;;5036091;28;20041;-54
2023/10/20 12:38:12;;;;;;;6.68;4.72;;;12.90;99.90;;;;;;5036498;28;20033;-53
2023/10/20 12:40:41;;;;;;;5.72;3.95;;;12.90;99.90;;;;;;5036412;28;20026;-55
2023/10/20 12:43:09;;;;;;;;;;;12.80;99.90;;;;;;5036779;28;20033;-53
2023/10/20 12:45:38;;;;;;;7.20;4.10;;;12.90;99.90;;;;;;5036384;28;19909;-52
2023/10/20 12:48:05;;;;;;;5.10;3.97;;;12.90;99.90;;;;;;5036136;28;20530;-55
2023/10/20 12:50:32;;;;;;;6.50;3.75;;;12.90;99.90;;;;;;5036337;28;20161;-54
2023/10/20 12:53:01;;;;;;;6.68;4.50;;;12.80;99.90;;;;;;5036251;28;20428;-53
2023/10/20 12:55:27;;;;;;;6.57;4.35;;;12.90;99.90;;;;;;5017751;28;20079;-54
2023/10/20 12:57:56;;;;;;;7.15;4.53;;;12.90;99.90;;;;;;5018276;28;20037;-55
2023/10/20 13:00:23;;;;;;;;;;;12.90;99.90;;;;;;5018400;28;20037;-54
2023/10/20 13:02:49;;;;;;;6.45;3.40;;;12.90;99.90;;;;;;5036679;28;19909;-52
2023/10/20 13:05:16;;;;;;;5.30;3.42;;;12.90;99.90;;;;;;5036810;28;20055;-53
2023/10/20 13:07:42;;;;;;;5.70;3.42;;;12.90;99.90;;;;;;5036577;28;20033;-54
2023/10/20 13:10:08;;;;;;;6.65;3.78;;;12.90;99.90;;;;;;5018570;28;20041;-55
2023/10/20 13:12:33;;;;;;;4.95;3.10;;;12.90;99.90;;;;;;5036002;28;20056;-55
2023/10/20 13:14:59;;;;;;;4.50;2.75;;;12.80;99.90;;;;;;5018259;28;20037;-54